Time;durP1;ratioP1;P1;durP2;ratioP2;P2;SDS_P1;SDS_P2;PMS_P1;PMS_P2;Temp;Humidity;BMP_temperature;BMP_pressure;BME280_temperature;BME280_humidity;BME280_pressure;Samples;Min_cycle;Max_cycle;Signal;HPM_P1;HPM_P2
2022/05/25 00:00:07;;;;;;;;;2.00;1.00;;;;;17.29;49.65;100996.59;5077797;28;45507;-74
2022/05/25 00:02:32;;;;;;;;;1.00;1.00;;;;;17.29;49.52;100993.94;5077958;28;45461;-72
2022/05/25 00:04:58;;;;;;;;;2.00;1.00;;;;;17.29;49.30;101000.09;5076540;28;45328;-72
2022/05/25 00:07:23;;;;;;;;;2.00;1.00;;;;;17.22;49.52;100987.03;5077533;28;45191;-73
2022/05/25 00:09:49;;;;;;;;;1.00;1.00;;;;;17.20;49.93;100992.34;5077505;28;45225;-74
2022/05/25 00:12:17;;;;;;;;;1.00;1.00;;;;;17.23;49.78;101002.03;5077769;28;45308;-73
2022/05/25 00:14:47;;;;;;;;;1.33;1.00;;;;;17.05;49.64;100969.75;5076853;28;46041;-73
2022/05/25 00:17:13;;;;;;;;;2.00;2.00;;;;;17.17;49.69;100989.78;5076911;28;45298;-74
2022/05/25 00:22:23;;;;;;;;;5.67;3.00;;;;;17.12;49.98;100974.00;5077274;28;45492;-73
2022/05/25 00:24:49;;;;;;;;;6.00;3.67;;;;;17.11;49.68;100979.34;5076967;28;45467;-74
2022/05/25 00:27:17;;;;;;;;;3.00;1.33;;;;;17.03;50.09;100965.38;5077430;28;45531;-71
2022/05/25 00:29:43;;;;;;;;;2.00;2.00;;;;;17.09;49.96;100978.50;5077473;28;45724;-73
2022/05/25 00:32:09;;;;;;;;;2.67;1.00;;;;;17.12;50.17;100986.38;5077421;28;45363;-68
2022/05/25 00:34:42;;;;;;;;;1.00;1.00;;;;;16.91;49.96;100958.56;5076896;28;45359;-74
2022/05/25 00:37:08;;;;;;;;;1.00;1.00;;;;;17.16;50.36;100993.34;5076842;28;45588;-73
2022/05/25 00:39:35;;;;;;;;;2.33;1.00;;;;;17.10;49.86;100990.81;5077154;28;45442;-75
2022/05/25 00:42:04;;;;;;;;;1.00;1.00;;;;;17.17;50.14;101003.88;5076886;28;45525;-74
2022/05/25 00:44:30;;;;;;;;;1.00;1.00;;;;;17.15;50.21;101000.38;5076523;28;46554;-75
2022/05/25 00:46:56;;;;;;;;;0.67;0.67;;;;;16.91;50.42;100974.44;5058280;28;45581;-69
2022/05/25 00:49:31;;;;;;;;;1.00;1.00;;;;;17.02;50.27;100993.63;5076466;28;45441;-72
2022/05/25 00:52:07;;;;;;;;;2.00;2.00;;;;;16.77;50.55;100956.16;5077297;28;45441;-74
2022/05/25 00:54:51;;;;;;;;;1.00;1.00;;;;;17.02;50.26;101011.28;5080312;28;46285;-74
2022/05/25 00:57:22;;;;;;;;;1.00;1.00;;;;;16.91;50.44;100988.53;5061571;28;45406;-74
2022/05/25 01:00:22;;;;;;;;;1.33;1.33;;;;;17.06;50.80;101021.78;5080269;28;45457;-73
2022/05/25 01:02:53;;;;;;;;;4.67;1.00;;;;;16.44;51.24;100933.91;5080500;28;45541;-74
2022/05/25 01:05:26;;;;;;;;;2.33;1.00;;;;;16.33;51.05;100923.56;5080078;28;45464;-74
2022/05/25 01:08:01;;;;;;;;;1.00;1.00;;;;;16.77;51.51;101026.72;5080317;28;45360;-72
2022/05/25 01:10:53;;;;;;;;;1.33;1.00;;;;;16.66;51.95;101026.94;5080342;28;45361;-72
2022/05/25 01:13:25;;;;;;;;;2.00;2.00;;;;;16.57;51.90;101029.75;5061875;28;45346;-71
2022/05/25 01:16:20;;;;;;;;;1.00;1.00;;;;;16.51;52.24;101034.25;5079504;27;46537;-74
2022/05/25 01:18:51;;;;;;;;;0.67;0.67;;;;;16.41;52.44;101021.22;5079961;28;45499;-73
2022/05/25 01:21:42;;;;;;;;;1.33;1.00;;;;;16.11;52.62;100974.16;5080115;28;45346;-72
2022/05/25 01:24:23;;;;;;;;;1.00;1.00;;;;;16.52;52.32;101032.47;5080244;28;45441;-72
2022/05/25 01:26:57;;;;;;;;;0.00;0.00;;;;;16.53;52.30;101040.34;5079567;28;46080;-72
2022/05/25 01:29:52;;;;;;;;;0.00;0.00;;;;;16.19;52.55;100970.50;5079792;28;45420;-72
2022/05/25 01:32:31;;;;;;;;;2.00;1.33;;;;;16.53;52.27;101039.50;5079672;28;45428;-73
2022/05/25 01:35:27;;;;;;;;;3.00;1.33;;;;;16.49;52.46;101043.09;5080061;28;45488;-73
2022/05/25 01:38:08;;;;;;;;;1.00;1.00;;;;;16.48;52.23;101036.94;5061123;28;45471;-73
2022/05/25 01:40:49;;;;;;;;;2.33;1.67;;;;;16.35;52.67;101016.00;5079186;28;45424;-72
2022/05/25 01:43:23;;;;;;;;;1.00;1.00;;;;;16.51;52.75;101047.47;5079220;28;45455;-71
2022/05/25 01:45:55;;;;;;;;;0.00;0.00;;;;;16.36;52.65;101021.28;5079905;28;45220;-74
2022/05/25 01:48:24;;;;;;;;;1.00;1.00;;;;;16.43;52.69;101044.06;5081043;28;46293;-73
2022/05/25 01:51:02;;;;;;;;;1.67;1.67;;;;;16.48;52.85;101058.09;5080870;28;45522;-72
2022/05/25 01:53:37;;;;;;;;;2.00;2.00;;;;;16.33;53.28;101037.22;5079244;28;45768;-72
2022/05/25 01:56:06;;;;;;;;;1.00;1.00;;;;;16.23;53.28;101022.38;5065942;28;45410;-73
2022/05/25 01:58:36;;;;;;;;;3.00;1.00;;;;;16.16;52.98;101013.72;5079366;28;46379;-71
2022/05/25 02:01:05;;;;;;;;;3.00;1.67;;;;;16.39;53.04;101055.59;5079306;28;45250;-72
2022/05/25 02:06:46;;;;;;;;;2.00;1.00;;;;;16.31;53.73;101054.84;5079636;28;45432;-74
2022/05/25 02:09:53;;;;;;;;;1.00;1.00;;;;;16.25;53.73;101062.88;5080278;28;46119;-73
2022/05/25 02:12:59;;;;;;;;;3.00;1.33;;;;;16.03;53.78;101030.66;5062185;28;45560;-73
2022/05/25 02:15:46;;;;;;;;;1.00;1.00;;;;;16.23;53.54;101062.03;5079208;28;45409;-73
2022/05/25 02:18:27;;;;;;;;;1.67;1.00;;;;;15.60;54.16;100952.91;5080414;28;45462;-74
2022/05/25 02:20:59;;;;;;;;;1.00;1.00;;;;;16.20;54.04;101068.22;5079638;28;46292;-73
2022/05/25 02:23:38;;;;;;;;;1.33;1.00;;;;;16.18;54.17;101072.66;5079854;28;45328;-73
2022/05/25 02:26:28;;;;;;;;;0.00;0.00;;;;;16.18;54.01;101074.44;5061428;28;45381;-75
2022/05/25 02:29:09;;;;;;;;;1.00;1.00;;;;;16.13;54.31;101066.59;5080361;28;45237;-75
2022/05/25 02:31:46;;;;;;;;;1.00;1.00;;;;;15.51;54.44;100970.66;5061182;28;46785;-74
2022/05/25 02:34:17;;;;;;;;;1.00;1.00;;;;;16.11;54.11;101071.91;5079488;28;45290;-75
2022/05/25 02:36:45;;;;;;;;;1.33;1.00;;;;;15.68;54.29;101002.97;5060784;28;45404;-75
2022/05/25 02:39:12;;;;;;;;;3.67;2.00;;;;;15.83;54.51;101036.25;5079613;28;45497;-75
2022/05/25 02:41:48;;;;;;;;;0.67;0.67;;;;;15.92;54.40;101059.00;5078595;28;45619;-75
2022/05/25 02:44:14;;;;;;;;;2.00;1.00;;;;;15.66;54.79;101029.41;5060781;28;45501;-74
2022/05/25 02:46:40;;;;;;;;;1.67;1.00;;;;;15.85;54.70;101076.69;5078768;28;45441;-74
2022/05/25 02:49:07;;;;;;;;;1.67;1.67;;;;;15.79;54.83;101061.81;5079187;28;45921;-74
2022/05/25 02:51:33;;;;;;;;;1.00;1.00;;;;;15.81;55.09;101070.59;5078444;28;45457;-74
2022/05/25 02:53:59;;;;;;;;;1.00;1.00;;;;;15.52;54.92;101026.09;5078714;28;45480;-74
2022/05/25 02:56:24;;;;;;;;;1.00;1.00;;;;;15.39;54.60;100993.69;5078825;28;45402;-72
2022/05/25 02:58:51;;;;;;;;;1.33;1.33;;;;;15.83;54.72;101070.59;5078788;28;45472;-75
2022/05/25 03:01:17;;;;;;;;;0.00;0.00;;;;;16.01;54.78;101091.44;5078722;28;46594;-74
2022/05/25 03:03:43;;;;;;;;;2.00;1.00;;;;;15.66;54.71;101029.41;5078650;28;45736;-72
2022/05/25 03:06:09;;;;;;;;;2.00;1.00;;;;;15.71;54.71;101041.69;5077892;28;45481;-73
2022/05/25 03:08:35;;;;;;;;;1.33;1.00;;;;;15.92;54.83;101081.00;5078576;28;45310;-73
2022/05/25 03:11:03;;;;;;;;;1.33;1.33;;;;;15.94;54.78;101084.50;5078275;28;46518;-72
2022/05/25 03:13:29;;;;;;;;;1.00;1.00;;;;;15.79;54.66;101063.59;5078129;28;45504;-68
2022/05/25 03:15:59;;;;;;;;;1.00;1.00;;;;;16.11;54.51;101102.72;5077029;28;45625;-73
2022/05/25 03:18:26;;;;;;;;;1.00;1.00;;;;;16.14;54.72;101110.63;5059868;28;45514;-72
2022/05/25 03:20:52;;;;;;;;;1.00;1.00;;;;;16.17;54.69;101115.00;5077868;28;45345;-73
2022/05/25 03:23:18;;;;;;;;;1.00;1.00;;;;;15.84;54.55;101074.97;5060025;28;45811;-73
2022/05/25 03:25:47;;;;;;;;;1.00;1.00;;;;;16.06;54.69;101112.50;5078235;27;45497;-74
2022/05/25 03:28:13;;;;;;;;;1.00;1.00;;;;;15.93;55.15;101097.75;5059572;27;45292;-74
2022/05/25 03:30:42;;;;;;;;;1.67;1.67;;;;;16.08;55.03;101124.78;5077671;27;45548;-73
2022/05/25 03:33:08;;;;;;;;;0.00;0.00;;;;;15.93;55.04;101101.25;5077759;28;45446;-73
2022/05/25 03:35:34;;;;;;;;;2.67;1.00;;;;;16.11;54.51;101135.34;5078164;28;45239;-73
2022/05/25 03:38:02;;;;;;;;;1.00;1.00;;;;;16.13;54.88;101137.06;5078169;28;45604;-73
2022/05/25 03:40:28;;;;;;;;;0.67;0.67;;;;;16.11;54.77;101134.44;5077858;28;45600;-74
2022/05/25 03:42:54;;;;;;;;;1.00;1.00;;;;;16.08;54.92;101135.34;5077842;28;45319;-74
2022/05/25 03:45:20;;;;;;;;;1.00;1.00;;;;;15.80;55.05;101102.28;5077911;28;45290;-72
2022/05/25 03:47:46;;;;;;;;;0.33;0.33;;;;;16.08;55.42;101156.50;5078222;28;45342;-73
2022/05/25 03:50:13;;;;;;;;;1.00;1.00;;;;;16.10;55.00;101160.00;5077810;28;46272;-73
2022/05/25 03:52:39;;;;;;;;;1.00;1.00;;;;;15.67;55.01;101085.72;5077788;28;45477;-72
2022/05/25 03:55:06;;;;;;;;;1.33;1.33;;;;;16.08;55.34;101169.69;5077737;28;45439;-72
2022/05/25 03:57:32;;;;;;;;;1.00;1.00;;;;;15.87;55.73;101138.31;5077919;28;45304;-74
2022/05/25 03:59:58;;;;;;;;;1.00;1.00;;;;;15.31;55.37;101052.78;5077400;27;46618;-74
2022/05/25 04:02:24;;;;;;;;;2.00;2.00;;;;;15.84;55.68;101133.94;5077238;27;45385;-73
2022/05/25 04:05:07;;;;;;;;;4.00;1.00;;;;;15.47;55.27;101085.97;5077978;27;45314;-73
2022/05/25 04:07:44;;;;;;;;;2.00;1.00;;;;;15.92;55.47;101162.88;5059368;28;45528;-74
2022/05/25 04:10:14;;;;;;;;;1.00;1.00;;;;;15.56;55.01;101085.00;5076853;28;46197;-74
2022/05/25 04:12:43;;;;;;;;;1.00;1.00;;;;;15.98;55.64;101157.53;5038836;28;45455;-73
2022/05/25 04:15:11;;;;;;;;;1.00;1.00;;;;;15.88;55.27;101146.22;5070962;27;45494;-72
2022/05/25 04:17:38;;;;;;;;;1.00;1.00;;;;;16.02;55.31;101176.88;5076972;27;45602;-72
2022/05/25 04:20:06;;;;;;;;;0.33;0.33;;;;;16.03;55.67;101187.41;5077301;27;45517;-74
2022/05/25 04:22:32;;;;;;;;;1.00;1.00;;;;;16.03;55.85;101178.59;5076861;27;45670;-74
2022/05/25 04:25:05;;;;;;;;;1.00;1.00;;;;;15.85;55.74;101161.22;5077250;27;45441;-73
2022/05/25 04:27:32;;;;;;;;;1.00;1.00;;;;;15.99;55.44;101185.72;5077022;27;45504;-74
2022/05/25 04:29:57;;;;;;;;;1.33;1.00;;;;;16.02;55.94;101185.66;5058643;27;46898;-74
2022/05/25 04:32:23;;;;;;;;;3.00;2.00;;;;;15.79;55.54;101153.38;5076574;27;45499;-71
2022/05/25 04:34:49;;;;;;;;;2.00;2.00;;;;;15.36;55.48;101078.19;5077479;27;45278;-72
2022/05/25 04:40:03;;;;;;;;;1.00;1.00;;;;;15.92;55.38;101177.84;5076698;27;45907;-75
2022/05/25 04:42:30;;;;;;;;;1.33;1.33;;;;;15.84;55.53;101170.03;5076880;28;45481;-75
2022/05/25 04:45:00;;;;;;;;;1.67;1.67;;;;;15.66;55.00;101152.63;5077059;27;45338;-74
2022/05/25 04:47:33;;;;;;;;;2.67;2.00;;;;;15.81;55.28;101172.72;5058720;28;45750;-73
2022/05/25 04:50:00;;;;;;;;;2.00;2.00;;;;;15.62;55.38;101151.78;5076726;28;45397;-73
2022/05/25 04:52:27;;;;;;;;;3.00;1.00;;;;;15.93;55.44;101196.34;5076438;28;45576;-73
2022/05/25 04:54:53;;;;;;;;;3.00;1.00;;;;;15.72;55.44;101152.59;5077482;28;45394;-74
2022/05/25 04:57:19;;;;;;;;;1.00;1.00;;;;;16.01;54.87;101194.47;5077338;28;45516;-74
2022/05/25 04:59:47;;;;;;;;;2.00;1.00;;;;;16.16;54.69;101211.91;5076912;28;45507;-74
2022/05/25 05:02:12;;;;;;;;;1.00;1.00;;;;;16.26;54.31;101218.81;5077440;28;45372;-75
2022/05/25 05:04:38;;;;;;;;;3.00;2.00;;;;;16.32;53.99;101229.31;5077384;28;45360;-73
2022/05/25 05:07:05;;;;;;;;;1.00;1.00;;;;;16.23;53.78;101210.94;5077422;28;45465;-74
2022/05/25 05:09:39;;;;;;;;;1.00;1.00;;;;;16.38;53.97;101214.25;5076625;28;45528;-75
2022/05/25 05:12:06;;;;;;;;;2.33;2.00;;;;;16.46;53.97;101233.50;5077507;28;45405;-76
2022/05/25 05:14:32;;;;;;;;;2.67;1.00;;;;;16.05;53.59;101156.53;5077741;28;45521;-75
2022/05/25 05:17:00;;;;;;;;;2.67;2.67;;;;;16.02;53.53;101138.09;5077778;28;45359;-75
2022/05/25 05:19:27;;;;;;;;;2.00;2.00;;;;;16.51;53.05;101221.97;5057771;28;45574;-72
2022/05/25 05:21:59;;;;;;;;;2.00;2.00;;;;;16.36;52.65;101186.97;5076737;28;45460;-73
2022/05/25 05:24:27;;;;;;;;;3.00;2.00;;;;;16.49;52.76;101197.34;5076754;28;45445;-72
2022/05/25 05:26:54;;;;;;;;;1.00;1.00;;;;;16.65;52.44;101227.03;5077574;28;45441;-75
2022/05/25 05:29:19;;;;;;;;;5.00;4.33;;;;;16.79;52.16;101236.56;5077396;28;45722;-73
2022/05/25 05:31:45;;;;;;;;;3.33;3.33;;;;;16.91;52.22;101249.59;5075508;28;45449;-73
2022/05/25 05:34:12;;;;;;;;;2.00;2.00;;;;;16.46;51.88;101162.97;5076450;28;45645;-73
2022/05/25 05:36:46;;;;;;;;;1.33;1.33;;;;;17.02;51.89;101242.38;5076904;28;45562;-73
2022/05/25 05:39:15;;;;;;;;;1.33;1.33;;;;;17.09;51.73;101249.31;5076991;28;45463;-74
2022/05/25 05:41:55;;;;;;;;;2.00;2.00;;;;;17.07;51.76;101231.72;5079936;28;45539;-74
2022/05/25 05:44:26;;;;;;;;;6.33;1.00;;;;;17.17;51.80;101239.44;5047587;28;45472;-75
2022/05/25 05:46:53;;;;;;;;;2.67;2.00;;;;;17.10;51.59;101216.63;5041502;28;45518;-73
2022/05/25 05:49:19;;;;;;;;;3.67;3.67;;;;;16.95;51.51;101177.22;5059359;28;45430;-73
2022/05/25 05:51:45;;;;;;;;;1.00;1.00;;;;;16.94;51.26;101164.88;5059305;28;45431;-74
2022/05/25 05:54:12;;;;;;;;;7.33;3.00;;;;;17.04;51.24;101184.13;5059014;28;45717;-73
2022/05/25 05:56:37;;;;;;;;;2.00;2.00;;;;;17.37;51.12;101228.53;5077929;28;45400;-73
2022/05/25 05:59:04;;;;;;;;;3.33;3.00;;;;;17.30;50.84;101216.31;5078851;28;48039;-73
2022/05/25 06:01:30;;;;;;;;;3.33;2.67;;;;;17.45;50.52;101231.03;5078985;28;45552;-74
2022/05/25 06:03:56;;;;;;;;;2.00;1.33;;;;;17.25;50.24;101193.44;5078924;28;45437;-74
2022/05/25 06:06:25;;;;;;;;;1.67;1.67;;;;;17.24;50.20;101191.72;5078712;28;45552;-73
2022/05/25 06:08:52;;;;;;;;;1.67;1.67;;;;;17.58;49.80;101239.59;5078768;28;46503;-72
2022/05/25 06:11:19;;;;;;;;;1.67;1.00;;;;;17.62;49.45;101246.59;5078255;28;45585;-73
2022/05/25 06:13:45;;;;;;;;;1.00;1.00;;;;;17.67;48.89;101251.81;5079137;28;45533;-73
2022/05/25 06:21:39;;;;;;;;;3.00;2.00;;;;;17.63;48.93;101237.75;5078238;27;45326;-74
2022/05/25 06:24:05;;;;;;;;;3.00;3.00;;;;;17.82;48.98;101266.56;5078801;27;45544;-75
2022/05/25 06:26:31;;;;;;;;;2.33;2.33;;;;;17.63;49.40;101232.47;5079582;28;45354;-73
2022/05/25 06:28:58;;;;;;;;;2.00;2.00;;;;;17.87;49.21;101269.97;5078805;28;46322;-73
2022/05/25 06:31:28;;;;;;;;;2.33;1.00;;;;;17.95;48.53;101281.31;5078789;28;45446;-75
2022/05/25 06:33:54;;;;;;;;;1.00;1.00;;;;;17.42;48.67;101182.56;5078748;27;45260;-74
2022/05/25 06:36:21;;;;;;;;;1.00;1.00;;;;;18.06;48.31;101287.28;5078735;28;45497;-73
2022/05/25 06:38:48;;;;;;;;;3.00;2.00;;;;;18.11;48.17;101292.50;5059451;28;47238;-73
2022/05/25 06:41:13;;;;;;;;;2.00;2.00;;;;;18.13;48.17;101293.34;5078695;28;45472;-72
2022/05/25 06:43:39;;;;;;;;;2.00;2.00;;;;;18.09;47.92;101276.63;5078188;28;45560;-72
2022/05/25 06:46:07;;;;;;;;;1.67;1.67;;;;;17.87;47.91;101230.25;5078273;27;45511;-72
2022/05/25 06:48:32;;;;;;;;;3.67;2.00;;;;;18.23;47.78;101295.75;5076927;27;45531;-73
2022/05/25 06:50:58;;;;;;;;;2.67;1.67;;;;;18.31;47.61;101300.03;5078231;27;45451;-73
2022/05/25 06:53:24;;;;;;;;;2.00;2.00;;;;;18.21;47.80;101281.66;5078259;28;45560;-73
2022/05/25 06:55:49;;;;;;;;;2.33;2.33;;;;;18.38;47.50;101304.28;5079022;27;45488;-72
2022/05/25 06:58:15;;;;;;;;;4.00;2.00;;;;;18.40;47.17;101305.16;5077767;27;46194;-73
2022/05/25 07:00:40;;;;;;;;;1.67;1.67;;;;;18.44;47.09;101309.47;5077814;28;45455;-73
2022/05/25 07:03:06;;;;;;;;;2.00;1.00;;;;;18.32;46.80;101288.50;5077171;27;45397;-74
2022/05/25 07:05:33;;;;;;;;;3.33;2.00;;;;;18.52;46.63;101326.09;5077747;28;45346;-72
2022/05/25 07:07:59;;;;;;;;;2.00;2.00;;;;;18.58;46.54;101315.34;5077279;28;45805;-74
2022/05/25 07:10:25;;;;;;;;;2.67;1.67;;;;;18.62;46.38;101309.06;5059767;28;45355;-72
2022/05/25 07:12:50;;;;;;;;;1.00;1.00;;;;;18.73;46.01;101315.94;5078124;28;45372;-74
2022/05/25 07:15:16;;;;;;;;;2.00;2.00;;;;;18.66;45.90;101288.66;5078577;28;45297;-76
2022/05/25 07:17:42;;;;;;;;;2.00;2.00;;;;;18.27;45.89;101218.78;5078222;28;46248;-73
2022/05/25 07:20:12;;;;;;;;;2.00;1.00;;;;;18.83;46.13;101322.78;5077938;28;45548;-76
2022/05/25 07:22:40;;;;;;;;;3.00;3.00;;;;;18.72;47.44;101295.59;5077798;28;47028;-75
2022/05/25 07:25:07;;;;;;;;;3.00;3.00;;;;;18.56;46.83;101266.75;5078351;27;45697;-75
2022/05/25 07:27:33;;;;;;;;;5.00;4.67;;;;;18.40;46.17;101217.63;5077781;28;45396;-73
2022/05/25 07:29:58;;;;;;;;;2.00;2.00;;;;;18.74;46.00;101270.75;5078249;28;45467;-74
2022/05/25 07:32:25;;;;;;;;;3.00;1.67;;;;;18.91;45.93;101298.72;5077920;28;45351;-74
2022/05/25 07:34:59;;;;;;;;;2.00;2.00;;;;;19.15;46.38;101340.63;5077654;28;45379;-75
2022/05/25 07:37:32;;;;;;;;;3.00;1.00;;;;;19.14;45.43;101330.03;5077406;28;45710;-75
2022/05/25 07:40:03;;;;;;;;;1.00;1.00;;;;;19.25;45.04;101342.16;5077000;28;45420;-74
2022/05/25 07:42:30;;;;;;;;;3.00;3.00;;;;;18.96;45.13;101291.50;5077903;28;45426;-73
2022/05/25 07:44:59;;;;;;;;;0.33;0.33;;;;;19.03;44.96;101296.66;5059216;28;45668;-77
2022/05/25 07:47:27;;;;;;;;;1.00;1.00;;;;;19.34;44.68;101350.78;5077374;28;46521;-74
2022/05/25 07:49:52;;;;;;;;;1.33;1.33;;;;;18.94;44.03;101274.78;5059450;28;45434;-74
2022/05/25 07:52:20;;;;;;;;;1.00;1.00;;;;;18.87;44.02;101267.88;5077833;28;45549;-73
2022/05/25 07:54:47;;;;;;;;;1.00;1.00;;;;;19.02;43.95;101283.41;5078125;28;45473;-74
2022/05/25 07:57:13;;;;;;;;;2.00;2.00;;;;;18.87;44.23;101262.56;5077094;28;46177;-75
2022/05/25 07:59:40;;;;;;;;;1.67;1.00;;;;;19.40;43.43;101345.34;5077481;28;45306;-73
2022/05/25 08:07:45;;;;;;;;;2.00;1.00;;;;;19.59;43.16;101361.69;5077258;28;45736;-75
2022/05/25 08:10:16;;;;;;;;;0.33;0.33;;;;;19.65;43.57;101362.41;5077148;28;45284;-73
2022/05/25 08:12:44;;;;;;;;;1.00;1.00;;;;;19.68;43.03;101350.84;5077314;28;45484;-73
2022/05/25 08:15:12;;;;;;;;;1.00;1.00;;;;;19.82;42.42;101362.00;5077443;27;45732;-73
2022/05/25 08:17:38;;;;;;;;;1.00;1.00;;;;;19.36;42.46;101282.56;5076946;28;45509;-75
2022/05/25 08:20:05;;;;;;;;;1.00;1.00;;;;;19.83;42.79;101352.22;5077767;28;45285;-74
2022/05/25 08:22:31;;;;;;;;;3.00;1.33;;;;;19.94;42.15;101362.59;5059140;28;45465;-73
2022/05/25 08:24:58;;;;;;;;;1.00;1.00;;;;;19.84;42.49;101343.34;5059360;28;45570;-75
2022/05/25 08:27:24;;;;;;;;;1.67;1.00;;;;;19.85;42.15;101358.38;5076871;28;45556;-73
2022/05/25 08:29:49;;;;;;;;;1.00;1.00;;;;;20.04;42.58;101367.59;5076529;28;45615;-69
2022/05/25 08:32:15;;;;;;;;;1.00;1.00;;;;;20.07;41.86;101356.91;5058741;28;45530;-74
2022/05/25 08:34:41;;;;;;;;;0.00;0.00;;;;;19.77;42.08;101308.09;5078025;28;45460;-74
2022/05/25 08:37:08;;;;;;;;;0.67;0.67;;;;;20.04;42.05;101358.75;5077025;28;45467;-72
2022/05/25 08:39:34;;;;;;;;;0.00;0.00;;;;;19.93;42.22;101343.06;5076990;28;45553;-74
2022/05/25 08:42:05;;;;;;;;;1.00;1.00;;;;;19.75;42.05;101312.56;5076855;28;45393;-75
2022/05/25 08:44:32;;;;;;;;;1.00;1.00;;;;;19.98;42.08;101356.25;5077375;28;45521;-75
2022/05/25 08:47:00;;;;;;;;;2.00;2.00;;;;;19.98;42.48;101357.16;5058507;28;45456;-74
2022/05/25 08:49:30;;;;;;;;;0.00;0.00;;;;;19.87;42.37;101340.59;5076916;28;45438;-73
2022/05/25 08:51:58;;;;;;;;;2.33;0.33;;;;;19.82;42.18;101323.91;5058164;28;45472;-74
2022/05/25 08:54:27;;;;;;;;;1.00;0.33;;;;;19.63;41.59;101287.16;5077171;28;45272;-73
2022/05/25 08:57:03;;;;;;;;;0.00;0.00;;;;;20.03;41.85;101341.06;5076426;28;45611;-75
2022/05/25 08:59:38;;;;;;;;;0.00;0.00;;;;;20.18;41.53;101364.56;5076441;28;45477;-72
2022/05/25 09:02:28;;;;;;;;;1.00;1.00;;;;;20.21;40.99;101367.13;5077425;28;45337;-74
2022/05/25 09:05:09;;;;;;;;;0.00;0.00;;;;;20.18;40.50;101363.69;5076219;28;45467;-76
2022/05/25 09:07:57;;;;;;;;;0.00;0.00;;;;;20.14;40.20;101368.22;5076297;28;46040;-75
2022/05/25 09:10:23;;;;;;;;;0.00;0.00;;;;;20.01;39.93;101341.09;5077142;28;45354;-75
2022/05/25 09:13:06;;;;;;;;;0.00;0.00;;;;;19.83;40.26;101337.13;5076932;28;45504;-75
2022/05/25 09:18:33;;;;;;;;;0.67;0.00;;;;;20.15;40.08;101371.78;5081029;28;45752;-75
2022/05/25 09:21:07;;;;;;;;;0.00;0.00;;;;;20.14;39.51;101362.91;5080946;28;45579;-75
2022/05/25 09:23:35;;;;;;;;;0.00;0.00;;;;;19.82;40.25;101308.84;5061455;28;45438;-75
2022/05/25 09:26:01;;;;;;;;;1.00;0.00;;;;;19.92;40.12;101320.09;5079977;28;45508;-74
2022/05/25 09:28:34;;;;;;;;;0.00;0.00;;;;;20.30;40.12;101376.66;5079750;28;45781;-74
2022/05/25 09:31:03;;;;;;;;;0.00;0.00;;;;;20.18;38.41;101337.09;5079831;28;45330;-75
2022/05/25 09:33:56;;;;;;;;;0.33;0.00;;;;;20.39;40.29;101362.22;5078996;28;45310;-74
2022/05/25 09:36:28;;;;;;;;;0.00;0.00;;;;;20.37;38.35;101356.94;5066585;28;45249;-71
2022/05/25 09:39:13;;;;;;;;;1.00;1.00;;;;;20.43;38.97;101379.81;5061135;28;46394;-72
2022/05/25 09:41:43;;;;;;;;;0.00;0.00;;;;;20.42;37.49;101376.28;5079514;28;45547;-71
2022/05/25 09:44:11;;;;;;;;;0.00;0.00;;;;;20.40;37.18;101382.56;5079809;28;45520;-75
2022/05/25 09:46:45;;;;;;;;;0.00;0.00;;;;;20.37;37.70;101374.69;5061723;28;45350;-76
2022/05/25 09:49:26;;;;;;;;;0.00;0.00;;;;;20.23;37.75;101337.84;5079210;28;45479;-73
2022/05/25 09:51:54;;;;;;;;;0.00;0.00;;;;;20.44;39.10;101379.78;5079057;28;45583;-73
2022/05/25 09:54:46;;;;;;;;;0.00;0.00;;;;;20.48;38.38;101377.91;5079415;28;45370;-74
2022/05/25 09:57:31;;;;;;;;;0.00;0.00;;;;;20.52;37.48;101387.53;5080456;28;45363;-73
2022/05/25 10:00:21;;;;;;;;;0.00;0.00;;;;;20.09;38.24;101301.84;5063371;28;47343;-75
2022/05/25 10:02:47;;;;;;;;;0.00;0.00;;;;;20.59;38.00;101391.78;5079878;28;45457;-76
2022/05/25 10:05:23;;;;;;;;;0.67;0.67;;;;;20.20;36.85;101328.16;5079194;28;45417;-75
2022/05/25 10:07:53;;;;;;;;;0.00;0.00;;;;;20.61;36.75;101389.97;5079714;28;45425;-73
2022/05/25 10:10:26;;;;;;;;;0.00;0.00;;;;;20.59;36.68;101386.47;5078989;28;45453;-76
2022/05/25 10:13:13;;;;;;;;;0.00;0.00;;;;;20.38;40.47;101340.03;5080322;28;45488;-76
2022/05/25 10:15:38;;;;;;;;;0.00;0.00;;;;;20.73;38.67;101381.59;5081412;27;45287;-77
2022/05/25 10:18:04;;;;;;;;;2.33;2.33;;;;;20.21;38.07;101275.84;5080364;28;45478;-75
2022/05/25 10:20:42;;;;;;;;;1.00;1.00;;;;;20.80;37.96;101376.13;5061011;28;45779;-76
2022/05/25 10:23:18;;;;;;;;;1.00;1.00;;;;;20.82;38.37;101376.94;5080370;28;45449;-75
2022/05/25 10:25:56;;;;;;;;;2.00;2.00;;;;;20.80;36.93;101374.31;5078863;28;45397;-78
2022/05/25 10:28:36;;;;;;;;;104.33;97.67;;;;;20.11;39.72;101273.44;5079820;28;45346;-77
2022/05/25 10:36:45;;;;;;;;;73.50;61.25;;;;;21.01;39.36;101386.09;5079072;28;45707;-78
2022/05/25 10:37:06;;;;;;;;;41.00;35.50;;;;;21.11;40.65;101392.00;5080283;28;45298;-77
2022/05/25 10:39:34;;;;;;;;;31.33;28.67;;;;;21.20;39.77;101373.06;5061909;28;45480;-77
2022/05/25 10:42:29;;;;;;;;;17.00;15.00;;;;;21.01;39.55;101338.16;5079379;28;46331;-76
2022/05/25 10:45:18;;;;;;;;;12.33;10.33;;;;;21.37;39.73;101372.53;5066518;28;45426;-77
2022/05/25 10:47:54;;;;;;;;;14.67;14.67;;;;;21.48;40.14;101375.75;5079181;28;45316;-73
2022/05/25 10:50:56;;;;;;;;;11.00;10.00;;;;;21.55;36.69;101374.63;5079012;28;45500;-74
2022/05/25 10:57:03;;;;;;;;;4.00;3.00;;;;;21.58;37.23;101358.50;5078600;28;45501;-76
2022/05/25 10:59:48;;;;;;;;;2.00;1.00;;;;;21.61;36.29;101338.88;5056708;28;45929;-75
2022/05/25 11:02:45;;;;;;;;;1.00;1.00;;;;;21.22;36.12;101280.66;5069105;28;46814;-76
2022/05/25 11:05:23;;;;;;;;;2.00;1.00;;;;;21.19;36.05;101286.09;5077615;28;45540;-74
2022/05/25 11:07:58;;;;;;;;;0.00;0.00;;;;;21.73;36.10;101380.25;5068538;28;45291;-74
2022/05/25 11:10:48;;;;;;;;;2.33;0.00;;;;;21.34;35.43;101298.91;5077373;28;45404;-75
2022/05/25 11:13:26;;;;;;;;;2.00;2.00;;;;;21.78;37.39;101367.63;5077559;28;45575;-74
2022/05/25 11:16:42;;;;;;;;;3.00;3.00;;;;;21.82;36.93;101369.25;5077637;27;46760;-72
2022/05/25 11:19:39;;;;;;;;;5.00;3.00;;;;;21.91;35.86;101378.75;5058456;28;45530;-74
2022/05/25 11:22:31;;;;;;;;;3.00;1.00;;;;;21.88;36.77;101360.16;5077337;28;45436;-76
2022/05/25 11:25:29;;;;;;;;;1.33;1.33;;;;;21.91;36.44;101368.06;5052622;28;45699;-73
2022/05/25 11:28:16;;;;;;;;;1.00;1.00;;;;;21.97;36.50;101368.75;5047273;28;45591;-74
2022/05/25 11:31:13;;;;;;;;;1.00;1.00;;;;;22.11;35.75;101372.69;5077586;28;45419;-73
2022/05/25 11:34:10;;;;;;;;;1.33;1.00;;;;;22.19;35.20;101366.16;5076699;28;45580;-73
2022/05/25 11:37:13;;;;;;;;;1.00;0.00;;;;;22.27;35.24;101368.56;5070487;28;45761;-76
2022/05/25 11:40:08;;;;;;;;;2.33;1.00;;;;;21.75;36.07;101285.94;5070303;28;46201;-74
2022/05/25 11:42:46;;;;;;;;;0.00;0.00;;;;;22.29;35.15;101365.88;5071293;28;45480;-76
2022/05/25 11:45:53;;;;;;;;;1.00;1.00;;;;;21.87;34.66;101303.28;5075026;28;46410;-76
2022/05/25 11:48:56;;;;;;;;;6.33;4.33;;;;;22.39;35.78;101372.59;5074418;28;45875;-75
2022/05/25 11:51:30;;;;;;;;;2.00;2.00;;;;;22.51;35.93;101365.91;5075113;28;45772;-76
2022/05/25 11:54:16;;;;;;;;;2.00;2.00;;;;;22.60;35.64;101370.91;5075675;28;45578;-75
2022/05/25 11:56:55;;;;;;;;;0.00;0.00;;;;;22.67;34.43;101375.09;5070543;28;45429;-76
2022/05/25 11:59:50;;;;;;;;;1.33;1.00;;;;;22.66;33.99;101376.03;5074553;28;45383;-77
2022/05/25 12:02:45;;;;;;;;;0.67;0.67;;;;;22.73;34.48;101372.19;5048348;28;47085;-74
2022/05/25 12:05:29;;;;;;;;;0.00;0.00;;;;;22.06;34.79;101242.16;5040459;28;45647;-76
2022/05/25 12:08:35;;;;;;;;;1.00;1.00;;;;;22.82;34.27;101347.78;5074377;28;45583;-72
2022/05/25 12:11:23;;;;;;;;;0.00;0.00;;;;;22.57;34.63;101305.16;5073391;28;45643;-77
2022/05/25 12:14:16;;;;;;;;;0.00;0.00;;;;;22.44;34.51;101278.06;5058265;28;47631;-74
2022/05/25 12:16:44;;;;;;;;;0.00;0.00;;;;;22.89;34.22;101356.44;5069858;28;45851;-76
2022/05/25 12:19:13;;;;;;;;;2.00;0.00;;;;;22.98;34.71;101369.44;5074570;28;45399;-77